NKS1456 KMYR-KLGA
Flight info
| Callsign | NKS1456 |
|---|---|
| Flight time | 1h 26m |
| Altitude | 37000 |
| Route | CRE CHKLZ ZORDO Q107 HURTS PROUD2 |
| Aircraft | A320/M-SDE3FGHIRWY/LB1 |
Departure
| Time | 2026-05-05 00:49 |
|---|---|
| Airport | Myrtle Beach International Airport (KMYR) |
Arrival
| Time | 2026-05-05 02:16 |
|---|---|
| Airport | LaGuardia Airport (KLGA) |
| Time | Latitude | Longitude | Altitude | Speed | Heading |
|---|---|---|---|---|---|
| 2026-05-05 00:16 | 33.68064 | -78.92461 | 26 ft | 0 kts | 150° |
| 2026-05-05 00:34 | 33.68065 | -78.92461 | 26 ft | 0 kts | 150° |
| 2026-05-05 00:34 | 33.68083 | -78.92474 | 26 ft | 8 kts | 153° |
| 2026-05-05 00:34 | 33.68167 | -78.92509 | 26 ft | 3 kts | 135° |
| 2026-05-05 00:34 | 33.68166 | -78.92519 | 26 ft | 4 kts | 63° |
| 2026-05-05 00:35 | 33.68144 | -78.92586 | 26 ft | 0 kts | 77° |
| 2026-05-05 00:35 | 33.68144 | -78.92587 | 26 ft | 0 kts | 70° |
| 2026-05-05 00:35 | 33.68144 | -78.92589 | 26 ft | 0 kts | 70° |
| 2026-05-05 00:39 | 33.68145 | -78.92582 | 26 ft | 1 kts | 96° |
| 2026-05-05 00:40 | 33.68135 | -78.92570 | 26 ft | 2 kts | 149° |
| 2026-05-05 00:40 | 33.68115 | -78.92573 | 26 ft | 2 kts | 211° |
| 2026-05-05 00:40 | 33.68110 | -78.92581 | 26 ft | 2 kts | 244° |
| 2026-05-05 00:40 | 33.68108 | -78.92593 | 26 ft | 0 kts | 256° |
| 2026-05-05 00:41 | 33.68107 | -78.92594 | 26 ft | 0 kts | 256° |
| 2026-05-05 00:41 | 33.68104 | -78.92612 | 26 ft | 3 kts | 256° |
| 2026-05-05 00:41 | 33.68103 | -78.92648 | 26 ft | 4 kts | 295° |
| 2026-05-05 00:41 | 33.68137 | -78.92670 | 26 ft | 6 kts | 347° |
| 2026-05-05 00:42 | 33.68190 | -78.92684 | 26 ft | 8 kts | 348° |
| 2026-05-05 00:42 | 33.68256 | -78.92700 | 26 ft | 10 kts | 348° |
| 2026-05-05 00:42 | 33.68341 | -78.92720 | 26 ft | 14 kts | 348° |
| 2026-05-05 00:42 | 33.68447 | -78.92748 | 26 ft | 16 kts | 347° |
| 2026-05-05 00:43 | 33.68559 | -78.92776 | 25 ft | 16 kts | 348° |
| 2026-05-05 00:43 | 33.68678 | -78.92806 | 25 ft | 17 kts | 348° |
| 2026-05-05 00:43 | 33.68802 | -78.92838 | 25 ft | 18 kts | 348° |
| 2026-05-05 00:43 | 33.68916 | -78.92866 | 25 ft | 14 kts | 349° |
| 2026-05-05 00:44 | 33.69011 | -78.92851 | 24 ft | 13 kts | 2° |
| 2026-05-05 00:44 | 33.69112 | -78.92873 | 24 ft | 15 kts | 347° |
| 2026-05-05 00:44 | 33.69219 | -78.92900 | 23 ft | 13 kts | 348° |
| 2026-05-05 00:44 | 33.69276 | -78.92933 | 23 ft | 8 kts | 291° |
| 2026-05-05 00:45 | 33.69271 | -78.93002 | 23 ft | 5 kts | 256° |
| 2026-05-05 00:45 | 33.69263 | -78.93041 | 23 ft | 0 kts | 257° |
| 2026-05-05 00:47 | 33.69257 | -78.93072 | 23 ft | 6 kts | 257° |
| 2026-05-05 00:47 | 33.69235 | -78.93138 | 23 ft | 8 kts | 210° |
| 2026-05-05 00:48 | 33.69207 | -78.93140 | 23 ft | 0 kts | 167° |
| 2026-05-05 00:48 | 33.69206 | -78.93140 | 23 ft | 0 kts | 167° |
| 2026-05-05 00:48 | 33.69116 | -78.93117 | 24 ft | 41 kts | 167° |
| 2026-05-05 00:48 | 33.68622 | -78.92993 | 26 ft | 102 kts | 168° |
| 2026-05-05 00:49 | 33.67731 | -78.92769 | 27 ft | 152 kts | 169° |
| 2026-05-05 00:49 | 33.66652 | -78.92486 | 393 ft | 163 kts | 169° |
| 2026-05-05 00:49 | 33.65538 | -78.92175 | 955 ft | 166 kts | 168° |
| 2026-05-05 00:49 | 33.64434 | -78.91846 | 1600 ft | 167 kts | 167° |
| 2026-05-05 00:50 | 33.63318 | -78.91502 | 2279 ft | 165 kts | 168° |
| 2026-05-05 00:50 | 33.62180 | -78.91170 | 2776 ft | 176 kts | 168° |
| 2026-05-05 00:50 | 33.60904 | -78.90798 | 2978 ft | 206 kts | 168° |
| 2026-05-05 00:50 | 33.59373 | -78.90356 | 2989 ft | 242 kts | 168° |
| 2026-05-05 00:51 | 33.57686 | -78.89873 | 2983 ft | 250 kts | 168° |
| 2026-05-05 00:51 | 33.55984 | -78.89384 | 2980 ft | 251 kts | 168° |
| 2026-05-05 00:51 | 33.54280 | -78.88895 | 2978 ft | 250 kts | 168° |
| 2026-05-05 00:51 | 33.52586 | -78.88410 | 2981 ft | 251 kts | 168° |
| 2026-05-05 00:52 | 33.50887 | -78.87926 | 2980 ft | 250 kts | 168° |
| 2026-05-05 00:52 | 33.49232 | -78.87308 | 2971 ft | 254 kts | 152° |
| 2026-05-05 00:52 | 33.48021 | -78.85721 | 3263 ft | 271 kts | 115° |
| 2026-05-05 00:52 | 33.47714 | -78.83504 | 4213 ft | 273 kts | 86° |
| 2026-05-05 00:53 | 33.48264 | -78.81389 | 5125 ft | 273 kts | 57° |
| 2026-05-05 00:53 | 33.49607 | -78.79806 | 5971 ft | 273 kts | 28° |
| 2026-05-05 00:53 | 33.51378 | -78.79154 | 6838 ft | 272 kts | 9° |
| 2026-05-05 00:53 | 33.53254 | -78.78788 | 7650 ft | 274 kts | 9° |
| 2026-05-05 00:54 | 33.55124 | -78.78397 | 8410 ft | 277 kts | 9° |
| 2026-05-05 00:54 | 33.57013 | -78.77987 | 9144 ft | 280 kts | 10° |
| 2026-05-05 00:54 | 33.58941 | -78.77557 | 9878 ft | 283 kts | 9° |
| 2026-05-05 00:54 | 33.60885 | -78.77119 | 10545 ft | 287 kts | 9° |
| 2026-05-05 00:55 | 33.62891 | -78.76665 | 10887 ft | 303 kts | 9° |
| 2026-05-05 00:55 | 33.65015 | -78.76184 | 11179 ft | 319 kts | 9° |
| 2026-05-05 00:55 | 33.67263 | -78.75674 | 11462 ft | 335 kts | 9° |
| 2026-05-05 00:55 | 33.69581 | -78.75145 | 11867 ft | 345 kts | 9° |
| 2026-05-05 00:56 | 33.71965 | -78.74599 | 12490 ft | 348 kts | 9° |
| 2026-05-05 00:56 | 33.74331 | -78.74056 | 13106 ft | 350 kts | 9° |
| 2026-05-05 00:56 | 33.76737 | -78.73507 | 13691 ft | 353 kts | 9° |
| 2026-05-05 00:56 | 33.79190 | -78.72898 | 14239 ft | 358 kts | 14° |
| 2026-05-05 00:57 | 33.81451 | -78.71656 | 14737 ft | 366 kts | 31° |
| 2026-05-05 00:57 | 33.83358 | -78.69620 | 15256 ft | 373 kts | 47° |
| 2026-05-05 00:57 | 33.85006 | -78.67185 | 15777 ft | 377 kts | 49° |
| 2026-05-05 00:57 | 33.86642 | -78.64681 | 16250 ft | 381 kts | 49° |
| 2026-05-05 00:58 | 33.88270 | -78.62188 | 16718 ft | 385 kts | 49° |
| 2026-05-05 00:58 | 33.89944 | -78.59640 | 17185 ft | 389 kts | 49° |
| 2026-05-05 00:58 | 33.91632 | -78.57079 | 17653 ft | 394 kts | 48° |
| 2026-05-05 00:58 | 33.93342 | -78.54492 | 18098 ft | 398 kts | 48° |
| 2026-05-05 00:59 | 33.95090 | -78.51851 | 18548 ft | 402 kts | 48° |
| 2026-05-05 00:59 | 33.96829 | -78.49225 | 18995 ft | 405 kts | 48° |
| 2026-05-05 00:59 | 33.98605 | -78.46545 | 19450 ft | 409 kts | 47° |
| 2026-05-05 00:59 | 34.00388 | -78.43851 | 19882 ft | 412 kts | 48° |
| 2026-05-05 01:00 | 34.02166 | -78.41162 | 20313 ft | 415 kts | 47° |
| 2026-05-05 01:00 | 34.03964 | -78.38440 | 20720 ft | 418 kts | 47° |
| 2026-05-05 01:00 | 34.05793 | -78.35671 | 21136 ft | 421 kts | 47° |
| 2026-05-05 01:00 | 34.07611 | -78.32914 | 21530 ft | 424 kts | 48° |
| 2026-05-05 01:01 | 34.09466 | -78.30102 | 21921 ft | 427 kts | 48° |
| 2026-05-05 01:01 | 34.11312 | -78.27299 | 22305 ft | 430 kts | 48° |
| 2026-05-05 01:01 | 34.13207 | -78.24419 | 22692 ft | 432 kts | 48° |
| 2026-05-05 01:01 | 34.15081 | -78.21568 | 23060 ft | 435 kts | 48° |
| 2026-05-05 01:02 | 34.16993 | -78.18658 | 23436 ft | 437 kts | 47° |
| 2026-05-05 01:02 | 34.18895 | -78.15763 | 23810 ft | 440 kts | 48° |
| 2026-05-05 01:02 | 34.20800 | -78.12862 | 24159 ft | 442 kts | 48° |
| 2026-05-05 01:02 | 34.22707 | -78.09952 | 24497 ft | 445 kts | 48° |
| 2026-05-05 01:03 | 34.24638 | -78.07004 | 24839 ft | 447 kts | 48° |
| 2026-05-05 01:03 | 34.26564 | -78.04059 | 25175 ft | 449 kts | 48° |
| 2026-05-05 01:03 | 34.28494 | -78.01109 | 25497 ft | 451 kts | 48° |
| 2026-05-05 01:03 | 34.30463 | -77.98093 | 25834 ft | 453 kts | 48° |
| 2026-05-05 01:04 | 34.32453 | -77.95103 | 26158 ft | 453 kts | 44° |
| 2026-05-05 01:04 | 34.37617 | -77.91128 | 26723 ft | 439 kts | 11° |
| 2026-05-05 01:04 | 34.40587 | -77.90443 | 27047 ft | 435 kts | 4° |
| 2026-05-05 01:05 | 34.43583 | -77.89951 | 27307 ft | 438 kts | 3° |
| 2026-05-05 01:05 | 34.46630 | -77.89465 | 27566 ft | 440 kts | 3° |
| 2026-05-05 01:05 | 34.49694 | -77.88963 | 27847 ft | 443 kts | 3° |
| 2026-05-05 01:05 | 34.52763 | -77.88445 | 28129 ft | 444 kts | 3° |
| 2026-05-05 01:06 | 34.55815 | -77.87921 | 28407 ft | 446 kts | 3° |
| 2026-05-05 01:06 | 34.58884 | -77.87388 | 28788 ft | 445 kts | 3° |
| 2026-05-05 01:06 | 34.61936 | -77.86854 | 29201 ft | 443 kts | 3° |
| 2026-05-05 01:06 | 34.65006 | -77.86316 | 29592 ft | 442 kts | 3° |
| 2026-05-05 01:07 | 34.68069 | -77.85780 | 29958 ft | 441 kts | 3° |
| 2026-05-05 01:07 | 34.71115 | -77.85244 | 30305 ft | 441 kts | 3° |
| 2026-05-05 01:07 | 34.74138 | -77.84713 | 30631 ft | 441 kts | 3° |
| 2026-05-05 01:07 | 34.77193 | -77.84176 | 30954 ft | 441 kts | 2° |
| 2026-05-05 01:08 | 34.80246 | -77.83639 | 31284 ft | 441 kts | 3° |
| 2026-05-05 01:08 | 34.83279 | -77.83106 | 31615 ft | 440 kts | 3° |
| 2026-05-05 01:08 | 34.86293 | -77.82475 | 31927 ft | 442 kts | 6° |
| 2026-05-05 01:08 | 34.89294 | -77.81638 | 32235 ft | 444 kts | 9° |
| 2026-05-05 01:09 | 34.92307 | -77.80649 | 32537 ft | 445 kts | 9° |
| 2026-05-05 01:09 | 34.95256 | -77.79649 | 32844 ft | 444 kts | 10° |
| 2026-05-05 01:09 | 34.98260 | -77.78625 | 33164 ft | 444 kts | 9° |
| 2026-05-05 01:09 | 35.01239 | -77.77609 | 33467 ft | 443 kts | 9° |
| 2026-05-05 01:10 | 35.04182 | -77.76608 | 33753 ft | 443 kts | 9° |
| 2026-05-05 01:10 | 35.07175 | -77.75590 | 34020 ft | 443 kts | 9° |
| 2026-05-05 01:10 | 35.10156 | -77.74579 | 34284 ft | 443 kts | 9° |
| 2026-05-05 01:10 | 35.13147 | -77.73565 | 34558 ft | 442 kts | 9° |
| 2026-05-05 01:11 | 35.16126 | -77.72553 | 34780 ft | 442 kts | 9° |
| 2026-05-05 01:11 | 35.19132 | -77.71533 | 34978 ft | 442 kts | 9° |
| 2026-05-05 01:11 | 35.22096 | -77.70525 | 35168 ft | 442 kts | 9° |
| 2026-05-05 01:11 | 35.25044 | -77.69524 | 35357 ft | 442 kts | 9° |
| 2026-05-05 01:12 | 35.28028 | -77.68507 | 35520 ft | 443 kts | 9° |
| 2026-05-05 01:12 | 35.31007 | -77.67492 | 35674 ft | 444 kts | 9° |
| 2026-05-05 01:12 | 35.33996 | -77.66474 | 35833 ft | 445 kts | 9° |
| 2026-05-05 01:12 | 35.36959 | -77.65462 | 35986 ft | 445 kts | 9° |
| 2026-05-05 01:13 | 35.39931 | -77.64447 | 36130 ft | 446 kts | 9° |
| 2026-05-05 01:13 | 35.42948 | -77.63416 | 36271 ft | 446 kts | 9° |
| 2026-05-05 01:13 | 35.45947 | -77.62391 | 36402 ft | 447 kts | 9° |
| 2026-05-05 01:13 | 35.48948 | -77.61364 | 36569 ft | 448 kts | 9° |
| 2026-05-05 01:14 | 35.51943 | -77.60338 | 36734 ft | 448 kts | 9° |
| 2026-05-05 01:14 | 35.54968 | -77.59302 | 36874 ft | 449 kts | 9° |
| 2026-05-05 01:14 | 35.57951 | -77.58276 | 37022 ft | 450 kts | 9° |
| 2026-05-05 01:14 | 35.60999 | -77.57230 | 37039 ft | 450 kts | 9° |
| 2026-05-05 01:15 | 35.67020 | -77.55158 | 37038 ft | 450 kts | 9° |
| 2026-05-05 01:15 | 35.73063 | -77.53076 | 37034 ft | 450 kts | 9° |
| 2026-05-05 01:16 | 35.79094 | -77.51075 | 37036 ft | 449 kts | 8° |
| 2026-05-05 01:16 | 35.85170 | -77.49110 | 37033 ft | 450 kts | 8° |
| 2026-05-05 01:17 | 35.91206 | -77.47147 | 37033 ft | 450 kts | 8° |
| 2026-05-05 01:17 | 35.97269 | -77.45167 | 37034 ft | 450 kts | 8° |
| 2026-05-05 01:18 | 36.03336 | -77.43181 | 37023 ft | 450 kts | 9° |
| 2026-05-05 01:18 | 36.09384 | -77.41199 | 37018 ft | 450 kts | 8° |
| 2026-05-05 01:19 | 36.15483 | -77.39194 | 37023 ft | 450 kts | 9° |
| 2026-05-05 01:19 | 36.21583 | -77.37187 | 37012 ft | 449 kts | 9° |
| 2026-05-05 01:20 | 36.27675 | -77.35178 | 37014 ft | 450 kts | 9° |
| 2026-05-05 01:20 | 36.33727 | -77.33179 | 37012 ft | 449 kts | 9° |
| 2026-05-05 01:21 | 36.39791 | -77.31174 | 37019 ft | 450 kts | 9° |
| 2026-05-05 01:21 | 36.45850 | -77.29169 | 37007 ft | 449 kts | 10° |
| 2026-05-05 01:22 | 36.51909 | -77.27159 | 37009 ft | 449 kts | 10° |
| 2026-05-05 01:22 | 36.57933 | -77.25159 | 36998 ft | 449 kts | 10° |
| 2026-05-05 01:23 | 36.64013 | -77.23135 | 37005 ft | 449 kts | 10° |
| 2026-05-05 01:23 | 36.70061 | -77.21117 | 37003 ft | 448 kts | 10° |
| 2026-05-05 01:24 | 36.76089 | -77.19104 | 37002 ft | 448 kts | 10° |
| 2026-05-05 01:24 | 36.82111 | -77.17092 | 36999 ft | 448 kts | 10° |
| 2026-05-05 01:25 | 36.88166 | -77.15063 | 36991 ft | 448 kts | 10° |
| 2026-05-05 01:25 | 36.94217 | -77.13033 | 36988 ft | 448 kts | 10° |
| 2026-05-05 01:26 | 37.00265 | -77.11001 | 36993 ft | 448 kts | 10° |
| 2026-05-05 01:26 | 37.06263 | -77.08984 | 36996 ft | 447 kts | 10° |
| 2026-05-05 01:27 | 37.12314 | -77.06943 | 36987 ft | 447 kts | 11° |
| 2026-05-05 01:27 | 37.18399 | -77.04890 | 36984 ft | 447 kts | 11° |
| 2026-05-05 01:28 | 37.24445 | -77.02844 | 36988 ft | 447 kts | 11° |
| 2026-05-05 01:28 | 37.30502 | -77.00793 | 36986 ft | 447 kts | 11° |
| 2026-05-05 01:29 | 37.36503 | -76.98756 | 36979 ft | 446 kts | 11° |
| 2026-05-05 01:29 | 37.42484 | -76.96672 | 36979 ft | 447 kts | 13° |
| 2026-05-05 01:30 | 37.48370 | -76.93883 | 36978 ft | 451 kts | 20° |
| 2026-05-05 01:30 | 37.53979 | -76.90333 | 36974 ft | 453 kts | 24° |
| 2026-05-05 01:31 | 37.59533 | -76.86614 | 36972 ft | 452 kts | 24° |
| 2026-05-05 01:31 | 37.65107 | -76.82886 | 36968 ft | 452 kts | 24° |
| 2026-05-05 01:32 | 37.70697 | -76.79153 | 36969 ft | 452 kts | 24° |
| 2026-05-05 01:32 | 37.76254 | -76.75438 | 36968 ft | 452 kts | 24° |
| 2026-05-05 01:33 | 37.81824 | -76.71708 | 36968 ft | 452 kts | 24° |
| 2026-05-05 01:33 | 37.87396 | -76.67973 | 36968 ft | 451 kts | 24° |
| 2026-05-05 01:34 | 37.93012 | -76.64385 | 36960 ft | 450 kts | 22° |
| 2026-05-05 01:34 | 37.98615 | -76.60860 | 36953 ft | 450 kts | 22° |
| 2026-05-05 01:35 | 38.04216 | -76.57311 | 36958 ft | 450 kts | 23° |
| 2026-05-05 01:35 | 38.09846 | -76.53728 | 36959 ft | 450 kts | 23° |
| 2026-05-05 01:36 | 38.15478 | -76.50137 | 36956 ft | 450 kts | 23° |
| 2026-05-05 01:36 | 38.21087 | -76.46555 | 36953 ft | 450 kts | 22° |
| 2026-05-05 01:37 | 38.26580 | -76.42989 | 36964 ft | 451 kts | 25° |
| 2026-05-05 01:37 | 38.31913 | -76.38720 | 36954 ft | 454 kts | 32° |
| 2026-05-05 01:38 | 38.37004 | -76.33811 | 36953 ft | 454 kts | 34° |
| 2026-05-05 01:38 | 38.42013 | -76.28886 | 36953 ft | 455 kts | 34° |
| 2026-05-05 01:39 | 38.47044 | -76.23951 | 36952 ft | 454 kts | 34° |
| 2026-05-05 01:39 | 38.52060 | -76.19030 | 36946 ft | 454 kts | 34° |
| 2026-05-05 01:40 | 38.57108 | -76.14068 | 36955 ft | 454 kts | 34° |
| 2026-05-05 01:40 | 38.62083 | -76.09168 | 36231 ft | 453 kts | 34° |
| 2026-05-05 01:41 | 38.64620 | -76.06721 | 35333 ft | 460 kts | 33° |
| 2026-05-05 01:41 | 38.67215 | -76.04303 | 34515 ft | 464 kts | 33° |
| 2026-05-05 01:41 | 38.69828 | -76.01874 | 33785 ft | 465 kts | 33° |
| 2026-05-05 01:41 | 38.72444 | -75.99443 | 33050 ft | 466 kts | 33° |
| 2026-05-05 01:42 | 38.75044 | -75.97019 | 32343 ft | 465 kts | 33° |
| 2026-05-05 01:42 | 38.77620 | -75.94607 | 32061 ft | 453 kts | 33° |
| 2026-05-05 01:42 | 38.80157 | -75.92226 | 31826 ft | 444 kts | 33° |
| 2026-05-05 01:42 | 38.82630 | -75.89905 | 31591 ft | 443 kts | 33° |
| 2026-05-05 01:43 | 38.85134 | -75.87555 | 31345 ft | 444 kts | 34° |
| 2026-05-05 01:43 | 38.87627 | -75.85214 | 31103 ft | 444 kts | 34° |
| 2026-05-05 01:43 | 38.90130 | -75.82859 | 30861 ft | 445 kts | 34° |
| 2026-05-05 01:43 | 38.92622 | -75.80514 | 30622 ft | 445 kts | 34° |
| 2026-05-05 01:44 | 38.95107 | -75.78171 | 30350 ft | 445 kts | 34° |
| 2026-05-05 01:44 | 38.97613 | -75.75806 | 30080 ft | 446 kts | 34° |
| 2026-05-05 01:44 | 39.00132 | -75.73426 | 29807 ft | 447 kts | 34° |
| 2026-05-05 01:44 | 39.02647 | -75.71049 | 29532 ft | 448 kts | 34° |
| 2026-05-05 01:45 | 39.05165 | -75.68665 | 29264 ft | 448 kts | 34° |
| 2026-05-05 01:45 | 39.07674 | -75.66288 | 28997 ft | 449 kts | 34° |
| 2026-05-05 01:45 | 39.10189 | -75.63905 | 28719 ft | 449 kts | 34° |
| 2026-05-05 01:45 | 39.12731 | -75.61494 | 28447 ft | 450 kts | 34° |
| 2026-05-05 01:46 | 39.15177 | -75.59171 | 28189 ft | 450 kts | 34° |
| 2026-05-05 01:46 | 39.17705 | -75.56768 | 27918 ft | 447 kts | 34° |
| 2026-05-05 01:46 | 39.19947 | -75.54635 | 27669 ft | 446 kts | 34° |
| 2026-05-05 01:46 | 39.22447 | -75.52255 | 27342 ft | 444 kts | 34° |
| 2026-05-05 01:47 | 39.24954 | -75.49925 | 26996 ft | 441 kts | 32° |
| 2026-05-05 01:47 | 39.27504 | -75.47662 | 26583 ft | 438 kts | 32° |
| 2026-05-05 01:47 | 39.29997 | -75.45476 | 26116 ft | 435 kts | 31° |
| 2026-05-05 01:47 | 39.32511 | -75.43265 | 25624 ft | 432 kts | 31° |
| 2026-05-05 01:48 | 39.34974 | -75.41090 | 25127 ft | 428 kts | 31° |
| 2026-05-05 01:48 | 39.37440 | -75.38906 | 24623 ft | 425 kts | 31° |
| 2026-05-05 01:48 | 39.39840 | -75.36771 | 24119 ft | 421 kts | 31° |
| 2026-05-05 01:48 | 39.42263 | -75.34615 | 23609 ft | 418 kts | 32° |
| 2026-05-05 01:49 | 39.44657 | -75.32482 | 23100 ft | 414 kts | 32° |
| 2026-05-05 01:49 | 39.47034 | -75.30363 | 22601 ft | 411 kts | 32° |
| 2026-05-05 01:49 | 39.49362 | -75.28284 | 22111 ft | 407 kts | 32° |
| 2026-05-05 01:49 | 39.51673 | -75.26202 | 21724 ft | 407 kts | 32° |
| 2026-05-05 01:50 | 39.54021 | -75.24013 | 21732 ft | 413 kts | 33° |
| 2026-05-05 01:50 | 39.56337 | -75.21836 | 21743 ft | 415 kts | 33° |
| 2026-05-05 01:50 | 39.58695 | -75.19614 | 21749 ft | 415 kts | 33° |
| 2026-05-05 01:50 | 39.61036 | -75.17411 | 21547 ft | 415 kts | 33° |
| 2026-05-05 01:51 | 39.63365 | -75.15221 | 20983 ft | 413 kts | 33° |
| 2026-05-05 01:51 | 39.65698 | -75.13030 | 20457 ft | 411 kts | 33° |
| 2026-05-05 01:51 | 39.68008 | -75.10894 | 19928 ft | 407 kts | 31° |
| 2026-05-05 01:51 | 39.70385 | -75.08826 | 19422 ft | 404 kts | 31° |
| 2026-05-05 01:52 | 39.72725 | -75.06820 | 18907 ft | 402 kts | 30° |
| 2026-05-05 01:52 | 39.75033 | -75.04840 | 18395 ft | 399 kts | 30° |
| 2026-05-05 01:52 | 39.77378 | -75.02824 | 17902 ft | 397 kts | 30° |
| 2026-05-05 01:52 | 39.79688 | -75.00836 | 17410 ft | 395 kts | 30° |
| 2026-05-05 01:53 | 39.81968 | -74.98871 | 16929 ft | 392 kts | 30° |
| 2026-05-05 01:53 | 39.84225 | -74.96922 | 16445 ft | 390 kts | 30° |
| 2026-05-05 01:53 | 39.86488 | -74.94932 | 15954 ft | 389 kts | 31° |
| 2026-05-05 01:53 | 39.88686 | -74.92937 | 15467 ft | 387 kts | 32° |
| 2026-05-05 01:54 | 39.90866 | -74.90887 | 14983 ft | 386 kts | 35° |
| 2026-05-05 01:54 | 39.92915 | -74.88611 | 14493 ft | 386 kts | 40° |
| 2026-05-05 01:54 | 39.94810 | -74.86087 | 14003 ft | 385 kts | 44° |
| 2026-05-05 01:54 | 39.96610 | -74.83512 | 13524 ft | 384 kts | 45° |
| 2026-05-05 01:55 | 39.98403 | -74.80917 | 13033 ft | 382 kts | 45° |
| 2026-05-05 01:55 | 40.00161 | -74.78380 | 12558 ft | 380 kts | 45° |
| 2026-05-05 01:55 | 40.01954 | -74.75802 | 12064 ft | 378 kts | 44° |
| 2026-05-05 01:55 | 40.03724 | -74.73263 | 11573 ft | 376 kts | 44° |
| 2026-05-05 01:56 | 40.05474 | -74.70750 | 11090 ft | 374 kts | 44° |
| 2026-05-05 01:56 | 40.07216 | -74.68248 | 10624 ft | 371 kts | 44° |
| 2026-05-05 01:56 | 40.08942 | -74.65765 | 10280 ft | 365 kts | 44° |
| 2026-05-05 01:56 | 40.10628 | -74.63337 | 10053 ft | 355 kts | 44° |
| 2026-05-05 01:57 | 40.12197 | -74.61076 | 10033 ft | 340 kts | 44° |
| 2026-05-05 01:57 | 40.13702 | -74.58903 | 10025 ft | 325 kts | 44° |
| 2026-05-05 01:57 | 40.15194 | -74.56750 | 10026 ft | 311 kts | 43° |
| 2026-05-05 01:57 | 40.16631 | -74.54672 | 10038 ft | 304 kts | 44° |
| 2026-05-05 01:58 | 40.18059 | -74.52599 | 10059 ft | 304 kts | 43° |
| 2026-05-05 01:58 | 40.19540 | -74.50610 | 9956 ft | 304 kts | 40° |
| 2026-05-05 01:58 | 40.21044 | -74.48692 | 9717 ft | 302 kts | 40° |
| 2026-05-05 01:58 | 40.22554 | -74.46774 | 9472 ft | 301 kts | 40° |
| 2026-05-05 01:59 | 40.24060 | -74.44842 | 9228 ft | 301 kts | 40° |
| 2026-05-05 01:59 | 40.25539 | -74.42928 | 9039 ft | 299 kts | 41° |
| 2026-05-05 01:59 | 40.27034 | -74.40984 | 8918 ft | 297 kts | 41° |
| 2026-05-05 01:59 | 40.28500 | -74.39075 | 8591 ft | 297 kts | 41° |
| 2026-05-05 02:00 | 40.29962 | -74.37190 | 8230 ft | 298 kts | 40° |
| 2026-05-05 02:00 | 40.31458 | -74.35299 | 7902 ft | 296 kts | 40° |
| 2026-05-05 02:00 | 40.32909 | -74.33470 | 7569 ft | 296 kts | 41° |
| 2026-05-05 02:00 | 40.34399 | -74.31588 | 7225 ft | 296 kts | 41° |
| 2026-05-05 02:01 | 40.35870 | -74.29728 | 7027 ft | 294 kts | 41° |
| 2026-05-05 02:01 | 40.37430 | -74.27948 | 7019 ft | 294 kts | 32° |
| 2026-05-05 02:01 | 40.39128 | -74.26460 | 7021 ft | 294 kts | 28° |
| 2026-05-05 02:01 | 40.40863 | -74.25037 | 6971 ft | 290 kts | 28° |
| 2026-05-05 02:02 | 40.42574 | -74.23651 | 6637 ft | 290 kts | 28° |
| 2026-05-05 02:02 | 40.44227 | -74.22079 | 6199 ft | 295 kts | 43° |
| 2026-05-05 02:02 | 40.45555 | -74.20010 | 5841 ft | 295 kts | 51° |
| 2026-05-05 02:02 | 40.46781 | -74.17846 | 5561 ft | 294 kts | 52° |
| 2026-05-05 02:03 | 40.48034 | -74.15700 | 5240 ft | 292 kts | 50° |
| 2026-05-05 02:03 | 40.49306 | -74.13619 | 4911 ft | 291 kts | 50° |
| 2026-05-05 02:03 | 40.50601 | -74.11559 | 4593 ft | 290 kts | 49° |
| 2026-05-05 02:03 | 40.51965 | -74.09648 | 4275 ft | 289 kts | 38° |
| 2026-05-05 02:04 | 40.53722 | -74.08445 | 4023 ft | 281 kts | 8° |
| 2026-05-05 02:04 | 40.55664 | -74.08337 | 4021 ft | 277 kts | 351° |
| 2026-05-05 02:04 | 40.57566 | -74.08595 | 4014 ft | 276 kts | 348° |
| 2026-05-05 02:04 | 40.59494 | -74.08924 | 4010 ft | 276 kts | 348° |
| 2026-05-05 02:05 | 40.61426 | -74.09038 | 3996 ft | 282 kts | 6° |
| 2026-05-05 02:05 | 40.63286 | -74.08186 | 4009 ft | 287 kts | 24° |
| 2026-05-05 02:05 | 40.65049 | -74.06953 | 4011 ft | 288 kts | 27° |
| 2026-05-05 02:05 | 40.66809 | -74.05640 | 4009 ft | 288 kts | 27° |
| 2026-05-05 02:06 | 40.68544 | -74.04336 | 4006 ft | 288 kts | 27° |
| 2026-05-05 02:06 | 40.70308 | -74.03005 | 4007 ft | 288 kts | 27° |
| 2026-05-05 02:06 | 40.72059 | -74.01687 | 4006 ft | 288 kts | 27° |
| 2026-05-05 02:06 | 40.73790 | -74.00388 | 4004 ft | 287 kts | 27° |
| 2026-05-05 02:07 | 40.75523 | -73.99089 | 4005 ft | 287 kts | 27° |
| 2026-05-05 02:07 | 40.77266 | -73.97787 | 4002 ft | 288 kts | 27° |
| 2026-05-05 02:07 | 40.79004 | -73.96494 | 4001 ft | 288 kts | 27° |
| 2026-05-05 02:07 | 40.80773 | -73.95174 | 4005 ft | 288 kts | 27° |
| 2026-05-05 02:08 | 40.82503 | -73.93881 | 4006 ft | 288 kts | 27° |
| 2026-05-05 02:08 | 40.84253 | -73.92573 | 4004 ft | 287 kts | 27° |
| 2026-05-05 02:08 | 40.85993 | -73.91264 | 4007 ft | 288 kts | 27° |
| 2026-05-05 02:08 | 40.87716 | -73.89967 | 4003 ft | 287 kts | 27° |
| 2026-05-05 02:09 | 40.89458 | -73.88650 | 4001 ft | 287 kts | 27° |
| 2026-05-05 02:09 | 40.91191 | -73.87340 | 3998 ft | 287 kts | 27° |
| 2026-05-05 02:09 | 40.92938 | -73.86016 | 4008 ft | 287 kts | 27° |
| 2026-05-05 02:09 | 40.94665 | -73.84705 | 4010 ft | 287 kts | 27° |
| 2026-05-05 02:10 | 40.96329 | -73.83302 | 3992 ft | 287 kts | 40° |
| 2026-05-05 02:10 | 40.97514 | -73.81220 | 3750 ft | 286 kts | 68° |
| 2026-05-05 02:10 | 40.97881 | -73.78679 | 3398 ft | 281 kts | 97° |
| 2026-05-05 02:10 | 40.97339 | -73.76262 | 3118 ft | 268 kts | 127° |
| 2026-05-05 02:11 | 40.96090 | -73.74621 | 3003 ft | 242 kts | 157° |
| 2026-05-05 02:11 | 40.94557 | -73.74126 | 3004 ft | 220 kts | 188° |
| 2026-05-05 02:11 | 40.93176 | -73.74741 | 3006 ft | 202 kts | 212° |
| 2026-05-05 02:11 | 40.92033 | -73.75761 | 2841 ft | 196 kts | 216° |
| 2026-05-05 02:12 | 40.90922 | -73.76791 | 2678 ft | 192 kts | 215° |
| 2026-05-05 02:12 | 40.88716 | -73.78677 | 2323 ft | 188 kts | 213° |
| 2026-05-05 02:12 | 40.87586 | -73.79607 | 2089 ft | 189 kts | 212° |
| 2026-05-05 02:13 | 40.86527 | -73.80478 | 1903 ft | 175 kts | 212° |
| 2026-05-05 02:13 | 40.85521 | -73.81307 | 1633 ft | 165 kts | 211° |
| 2026-05-05 02:13 | 40.84581 | -73.82083 | 1416 ft | 154 kts | 212° |
| 2026-05-05 02:13 | 40.83689 | -73.82819 | 1205 ft | 146 kts | 211° |
| 2026-05-05 02:14 | 40.82831 | -73.83527 | 1003 ft | 142 kts | 211° |
| 2026-05-05 02:14 | 40.82035 | -73.84186 | 802 ft | 129 kts | 211° |
| 2026-05-05 02:14 | 40.81298 | -73.84796 | 642 ft | 123 kts | 212° |
| 2026-05-05 02:14 | 40.80569 | -73.85401 | 492 ft | 124 kts | 211° |
| 2026-05-05 02:15 | 40.79826 | -73.86006 | 373 ft | 124 kts | 211° |
| 2026-05-05 02:15 | 40.79094 | -73.86614 | 207 ft | 125 kts | 210° |
| 2026-05-05 02:15 | 40.78344 | -73.87232 | 32 ft | 126 kts | 211° |
| 2026-05-05 02:15 | 40.77713 | -73.87751 | 15 ft | 69 kts | 213° |
| 2026-05-05 02:16 | 40.77479 | -73.87945 | 16 ft | 29 kts | 210° |
| 2026-05-05 02:16 | 40.77356 | -73.87994 | 16 ft | 12 kts | 183° |
| 2026-05-05 02:16 | 40.77295 | -73.87982 | 16 ft | 6 kts | 135° |
| 2026-05-05 02:16 | 40.77311 | -73.87935 | 16 ft | 7 kts | 29° |
| 2026-05-05 02:17 | 40.77364 | -73.87894 | 16 ft | 9 kts | 32° |
| 2026-05-05 02:17 | 40.77428 | -73.87841 | 16 ft | 11 kts | 33° |
| 2026-05-05 02:17 | 40.77500 | -73.87779 | 16 ft | 12 kts | 32° |
| 2026-05-05 02:17 | 40.77522 | -73.87761 | 16 ft | 0 kts | 31° |
| 2026-05-05 02:18 | 40.77532 | -73.87753 | 16 ft | 2 kts | 31° |
| 2026-05-05 02:19 | 40.77557 | -73.87734 | 16 ft | 5 kts | 31° |
| 2026-05-05 02:19 | 40.77595 | -73.87704 | 16 ft | 6 kts | 31° |
| 2026-05-05 02:19 | 40.77614 | -73.87656 | 15 ft | 7 kts | 105° |
| 2026-05-05 02:19 | 40.77621 | -73.87598 | 15 ft | 7 kts | 41° |
| 2026-05-05 02:20 | 40.77672 | -73.87553 | 15 ft | 10 kts | 32° |
| 2026-05-05 02:20 | 40.77725 | -73.87502 | 15 ft | 7 kts | 57° |
| 2026-05-05 02:20 | 40.77715 | -73.87452 | 15 ft | 6 kts | 136° |
| 2026-05-05 02:20 | 40.77687 | -73.87402 | 15 ft | 7 kts | 132° |
| 2026-05-05 02:21 | 40.77644 | -73.87385 | 15 ft | 2 kts | 172° |
| 2026-05-05 02:21 | 40.77634 | -73.87382 | 15 ft | 0 kts | 171° |
| 2026-05-05 02:21 | 40.77633 | -73.87382 | 15 ft | 0 kts | 171° |